createdAt,value
2023-03-29T00:00:49.661Z,98410.53
2023-03-29T00:03:17.046Z,98410.97
2023-03-29T00:05:44.738Z,98405.78
2023-03-29T00:08:14.543Z,98404.88
2023-03-29T00:10:42.033Z,98406.00
2023-03-29T00:13:08.912Z,98393.47
2023-03-29T00:15:35.557Z,98393.06
2023-03-29T00:18:02.151Z,98382.47
2023-03-29T00:20:28.985Z,98374.53
2023-03-29T00:22:55.690Z,98384.41
2023-03-29T00:25:22.157Z,98379.72
2023-03-29T00:27:48.828Z,98368.13
2023-03-29T00:30:15.901Z,98373.97
2023-03-29T00:32:42.706Z,98377.28
2023-03-29T00:35:09.792Z,98381.63
2023-03-29T00:37:36.397Z,98366.97
2023-03-29T00:40:04.953Z,98368.53
2023-03-29T00:42:31.478Z,98362.50
2023-03-29T00:45:03.831Z,98368.59
2023-03-29T00:47:43.706Z,98355.47
2023-03-29T00:50:22.306Z,98356.38
2023-03-29T00:52:51.402Z,98362.88
2023-03-29T00:55:19.546Z,98344.28
2023-03-29T00:57:46.818Z,98348.25
2023-03-29T01:00:18.086Z,98342.06
2023-03-29T01:02:44.632Z,98351.09
2023-03-29T01:05:14.490Z,98338.06
2023-03-29T01:08:00.909Z,98344.81
2023-03-29T01:10:40.084Z,98344.38
2023-03-29T01:13:11.847Z,98334.22
2023-03-29T01:15:39.704Z,98332.63
2023-03-29T01:18:06.500Z,98333.13
2023-03-29T01:20:43.945Z,98321.75
2023-03-29T01:23:22.185Z,98324.75
2023-03-29T01:26:11.010Z,98327.50
2023-03-29T01:28:39.908Z,98314.28
2023-03-29T01:31:09.139Z,98309.50
2023-03-29T01:33:42.649Z,98315.38
2023-03-29T01:36:19.077Z,98316.09
2023-03-29T01:38:59.890Z,98309.91
2023-03-29T01:41:34.478Z,98306.34
2023-03-29T01:44:19.548Z,98299.53
2023-03-29T01:46:47.490Z,98296.88
2023-03-29T01:49:13.809Z,98301.88
2023-03-29T01:51:51.507Z,98292.44
2023-03-29T01:54:32.700Z,98291.00
2023-03-29T01:56:59.240Z,98283.31
2023-03-29T01:59:29.136Z,98289.59
2023-03-29T02:01:58.315Z,98277.22
2023-03-29T02:04:28.290Z,98275.28
2023-03-29T02:06:55.692Z,98270.09
2023-03-29T02:09:22.339Z,98270.41
2023-03-29T02:11:49.105Z,98271.00
2023-03-29T02:14:15.609Z,98262.81
2023-03-29T02:16:42.075Z,98257.31
2023-03-29T02:19:08.743Z,98264.94
2023-03-29T02:21:41.595Z,98257.44
2023-03-29T02:24:09.158Z,98263.63
2023-03-29T02:26:36.204Z,98264.16
2023-03-29T02:29:02.701Z,98264.28
2023-03-29T02:31:37.173Z,98264.75
2023-03-29T02:34:24.477Z,98256.16
2023-03-29T02:36:58.851Z,98257.13
2023-03-29T02:39:26.287Z,98244.97
2023-03-29T02:41:52.758Z,98242.75
2023-03-29T02:44:24.099Z,98246.19
2023-03-29T02:46:51.324Z,98247.19
2023-03-29T02:49:17.859Z,98244.47
2023-03-29T02:51:44.648Z,98239.69
2023-03-29T02:54:15.562Z,98226.81
2023-03-29T02:56:49.959Z,98226.47
2023-03-29T02:59:17.629Z,98230.53
2023-03-29T03:01:44.685Z,98225.66
2023-03-29T03:04:11.626Z,98234.69
2023-03-29T03:06:38.106Z,98234.41
2023-03-29T03:09:06.086Z,98236.97
2023-03-29T03:11:33.311Z,98230.44
2023-03-29T03:13:59.924Z,98232.88
2023-03-29T03:16:26.454Z,98224.97
2023-03-29T03:18:54.782Z,98210.94
2023-03-29T03:21:22.086Z,98215.63
2023-03-29T03:23:48.615Z,98199.97
2023-03-29T03:26:15.817Z,98207.09
2023-03-29T03:28:42.293Z,98201.41
2023-03-29T03:31:08.826Z,98196.22
2023-03-29T03:33:35.756Z,98186.69
2023-03-29T03:36:05.488Z,98193.28
2023-03-29T03:38:32.701Z,98193.19
2023-03-29T03:40:59.544Z,98187.28
2023-03-29T03:43:26.138Z,98195.84
2023-03-29T03:45:52.703Z,98186.00
2023-03-29T03:48:19.247Z,98187.28
2023-03-29T03:50:49.789Z,98182.94
2023-03-29T03:53:16.269Z,98178.44
2023-03-29T03:55:42.851Z,98169.09
2023-03-29T03:58:09.335Z,98183.94
2023-03-29T04:00:35.791Z,98178.66
2023-03-29T04:03:02.421Z,98185.75
2023-03-29T04:05:28.993Z,98179.16
2023-03-29T04:07:56.056Z,98173.06
2023-03-29T04:10:22.610Z,98179.88
2023-03-29T04:12:49.063Z,98177.94
2023-03-29T04:15:17.772Z,98184.94
2023-03-29T04:17:44.296Z,98179.88
2023-03-29T04:20:13.762Z,98179.88
2023-03-29T04:22:40.309Z,98170.69
2023-03-29T04:25:08.193Z,98170.84
2023-03-29T04:27:34.666Z,98177.13
2023-03-29T04:30:01.492Z,98174.59
2023-03-29T04:32:28.147Z,98171.03
2023-03-29T04:34:54.641Z,98167.56
2023-03-29T04:37:22.326Z,98163.28
2023-03-29T04:39:49.898Z,98170.69
2023-03-29T04:42:16.951Z,98160.66
2023-03-29T04:44:43.770Z,98160.34
2023-03-29T04:47:13.633Z,98162.28
2023-03-29T04:49:40.295Z,98168.25
2023-03-29T04:52:07.470Z,98160.94
2023-03-29T04:54:34.006Z,98159.22
2023-03-29T04:57:00.604Z,98162.16
2023-03-29T04:59:27.112Z,98156.16
2023-03-29T05:01:54.517Z,98153.72
2023-03-29T05:04:21.148Z,98152.47
2023-03-29T05:06:48.954Z,98141.03
2023-03-29T05:09:15.825Z,98140.22
2023-03-29T05:11:42.278Z,98134.47
2023-03-29T05:14:09.329Z,98137.66
2023-03-29T05:16:38.002Z,98128.28
2023-03-29T05:19:04.635Z,98127.69
2023-03-29T05:21:31.125Z,98131.50
2023-03-29T05:23:57.646Z,98125.53
2023-03-29T05:26:24.361Z,98122.38
2023-03-29T05:28:50.974Z,98123.19
2023-03-29T05:31:17.776Z,98124.81
2023-03-29T05:33:44.288Z,98124.09
2023-03-29T05:36:13.527Z,98122.47
2023-03-29T05:38:40.802Z,98124.25
2023-03-29T05:41:07.366Z,98124.44
2023-03-29T05:43:33.897Z,98113.38
2023-03-29T05:46:00.379Z,98107.75
2023-03-29T05:48:27.235Z,98113.59
2023-03-29T05:50:54.552Z,98113.78
2023-03-29T05:53:22.923Z,98114.59
2023-03-29T05:55:49.666Z,98111.34
2023-03-29T05:58:17.966Z,98114.28
2023-03-29T06:00:44.560Z,98119.81
2023-03-29T06:03:21.117Z,98110.34
2023-03-29T06:05:49.833Z,98110.91
2023-03-29T06:08:16.493Z,98116.22
2023-03-29T06:10:42.980Z,98110.13
2023-03-29T06:13:09.753Z,98113.66
2023-03-29T06:15:36.980Z,98106.13
2023-03-29T06:18:03.686Z,98106.59
2023-03-29T06:20:30.807Z,98117.44
2023-03-29T06:22:57.883Z,98112.25
2023-03-29T06:25:24.957Z,98106.94
2023-03-29T06:27:52.158Z,98098.06
2023-03-29T06:30:19.253Z,98109.47
2023-03-29T06:32:46.149Z,98101.19
2023-03-29T06:35:12.926Z,98106.94
2023-03-29T06:37:41.287Z,98108.56
2023-03-29T06:40:09.363Z,98112.44
2023-03-29T06:42:35.835Z,98103.56
2023-03-29T06:45:02.603Z,98105.06
2023-03-29T06:47:31.356Z,98106.88
2023-03-29T06:49:57.872Z,98102.25
2023-03-29T06:52:24.372Z,98095.16
2023-03-29T06:54:50.841Z,98097.88
2023-03-29T06:57:17.709Z,98093.38
2023-03-29T06:59:44.324Z,98083.34
2023-03-29T07:02:12.533Z,98087.41
2023-03-29T07:04:39.549Z,98078.31
2023-03-29T07:07:07.682Z,98078.66
2023-03-29T07:09:35.871Z,98084.97
2023-03-29T07:12:02.496Z,98081.41
2023-03-29T07:14:29.968Z,98086.78
2023-03-29T07:16:56.846Z,98077.25
2023-03-29T07:19:25.248Z,98083.38
2023-03-29T07:21:53.313Z,98087.09
2023-03-29T07:24:20.815Z,98098.44
2023-03-29T07:27:00.188Z,98095.38
2023-03-29T07:29:30.529Z,98108.97
2023-03-29T07:31:57.012Z,98110.91
2023-03-29T07:34:24.331Z,98109.16
2023-03-29T07:36:51.459Z,98106.72
2023-03-29T07:39:17.969Z,98107.50
2023-03-29T07:41:44.434Z,98108.00
2023-03-29T07:44:10.959Z,98117.72
2023-03-29T07:46:37.880Z,98110.25
2023-03-29T07:49:04.419Z,98117.03
2023-03-29T07:51:31.279Z,98120.44
2023-03-29T07:53:57.825Z,98118.81
2023-03-29T07:56:24.779Z,98105.25
2023-03-29T07:58:51.734Z,98112.84
2023-03-29T08:01:19.910Z,98113.78
2023-03-29T08:03:46.651Z,98121.72
2023-03-29T08:06:13.272Z,98121.72
2023-03-29T08:08:39.787Z,98115.91
2023-03-29T08:11:08.821Z,98113.47
2023-03-29T08:13:35.312Z,98106.69
2023-03-29T08:16:01.952Z,98106.50
2023-03-29T08:18:28.415Z,98115.22
2023-03-29T08:20:55.005Z,98120.25
2023-03-29T08:23:21.491Z,98120.69
2023-03-29T08:25:48.009Z,98120.06
2023-03-29T08:28:14.477Z,98120.41
2023-03-29T08:30:41.259Z,98121.22
2023-03-29T08:33:07.829Z,98118.94
2023-03-29T08:35:34.374Z,98129.47
2023-03-29T08:38:01.063Z,98123.00
2023-03-29T08:40:28.017Z,98123.81
2023-03-29T08:43:14.767Z,98130.59
2023-03-29T08:46:03.176Z,98134.13
2023-03-29T08:48:42.520Z,98131.53
2023-03-29T08:51:17.877Z,98139.63
2023-03-29T08:53:47.090Z,98136.41
2023-03-29T08:56:15.675Z,98145.19
2023-03-29T08:58:42.625Z,98137.75
2023-03-29T09:01:09.220Z,98130.59
2023-03-29T09:03:40.442Z,98124.44
2023-03-29T09:06:12.498Z,98126.84
2023-03-29T09:08:49.359Z,98127.75
2023-03-29T09:11:24.861Z,98126.44
2023-03-29T09:14:01.982Z,98129.88
2023-03-29T09:16:28.304Z,98124.72
2023-03-29T09:19:03.925Z,98129.38
2023-03-29T09:21:41.759Z,98127.25
2023-03-29T09:24:10.446Z,98134.03
2023-03-29T09:26:52.778Z,98127.66
2023-03-29T09:29:48.715Z,98128.28
2023-03-29T09:32:23.105Z,98129.75
2023-03-29T09:34:56.949Z,98123.69
2023-03-29T09:37:34.231Z,98117.50
2023-03-29T09:40:01.216Z,98113.09
2023-03-29T09:42:29.194Z,98112.66
2023-03-29T09:45:03.348Z,98113.66
2023-03-29T09:47:51.884Z,98118.91
2023-03-29T09:50:31.419Z,98111.50
2023-03-29T09:52:58.640Z,98103.47
2023-03-29T09:55:27.747Z,98101.31
2023-03-29T09:57:55.988Z,98101.16
2023-03-29T10:00:22.484Z,98110.47
2023-03-29T10:02:52.899Z,98108.53
2023-03-29T10:05:19.921Z,98115.56
2023-03-29T10:07:51.955Z,98111.88
2023-03-29T10:10:23.689Z,98105.03
2023-03-29T10:12:51.772Z,98107.78
2023-03-29T10:15:29.136Z,98100.44
2023-03-29T10:18:00.868Z,98102.41
2023-03-29T10:20:27.486Z,98101.19
2023-03-29T10:22:58.203Z,98105.78
2023-03-29T10:25:29.687Z,98109.22
2023-03-29T10:28:03.256Z,98105.72
2023-03-29T10:30:29.795Z,98102.94
2023-03-29T10:32:58.034Z,98099.66
2023-03-29T10:35:38.271Z,98099.38
2023-03-29T10:38:05.233Z,98102.94
2023-03-29T10:40:33.377Z,98103.16
2023-03-29T10:43:01.209Z,98092.69
2023-03-29T10:45:33.871Z,98091.19
2023-03-29T10:48:00.686Z,98089.94
2023-03-29T10:50:33.594Z,98087.97
2023-03-29T10:53:00.911Z,98094.75
2023-03-29T10:55:35.070Z,98098.25
2023-03-29T10:58:20.832Z,98099.16
2023-03-29T11:00:52.565Z,98095.13
2023-03-29T11:03:46.101Z,98086.25
2023-03-29T11:06:22.181Z,98097.31
2023-03-29T11:08:52.840Z,98093.63
2023-03-29T11:11:32.980Z,98096.50
2023-03-29T11:14:28.027Z,98098.44
2023-03-29T11:17:07.504Z,98093.13
2023-03-29T11:19:51.502Z,98095.72
2023-03-29T11:22:27.320Z,98093.28
2023-03-29T11:25:24.690Z,98093.41
2023-03-29T11:27:56.417Z,98076.44
2023-03-29T11:30:29.025Z,98079.56
2023-03-29T11:33:37.522Z,98083.47
2023-03-29T11:36:09.573Z,98078.41
2023-03-29T11:38:39.762Z,98083.91
2023-03-29T11:41:16.133Z,98081.72
2023-03-29T11:43:55.068Z,98084.41
2023-03-29T11:46:27.252Z,98091.09
2023-03-29T11:49:25.201Z,98087.63
2023-03-29T11:52:18.517Z,98088.41
2023-03-29T11:55:03.758Z,98081.09
2023-03-29T11:57:56.741Z,98097.59
2023-03-29T12:00:27.346Z,98098.38
2023-03-29T12:03:06.694Z,98098.22
2023-03-29T12:05:40.014Z,98092.22
2023-03-29T12:08:13.629Z,98102.03
2023-03-29T12:10:45.403Z,98101.06
2023-03-29T12:13:14.982Z,98094.19
2023-03-29T12:15:43.232Z,98087.28
2023-03-29T12:18:32.110Z,98085.22
2023-03-29T12:21:03.374Z,98090.94
2023-03-29T12:23:31.210Z,98090.59
2023-03-29T12:26:12.161Z,98097.19
2023-03-29T12:28:50.771Z,98089.19
2023-03-29T12:31:32.547Z,98081.22
2023-03-29T12:34:11.627Z,98088.03
2023-03-29T12:36:50.162Z,98098.41
2023-03-29T12:39:17.684Z,98104.28
2023-03-29T12:41:48.805Z,98098.31
2023-03-29T12:44:16.089Z,98097.63
2023-03-29T12:46:42.931Z,98099.03
2023-03-29T12:49:34.174Z,98097.84
2023-03-29T12:52:02.344Z,98109.84
2023-03-29T12:54:33.583Z,98109.94
2023-03-29T12:57:20.323Z,98100.06
2023-03-29T12:59:48.070Z,98096.50
2023-03-29T13:02:14.498Z,98095.34
2023-03-29T13:04:44.072Z,98085.31
2023-03-29T13:07:45.457Z,98086.00
2023-03-29T13:10:30.240Z,98077.34
2023-03-29T13:12:57.735Z,98084.59
2023-03-29T13:15:25.401Z,98092.56
2023-03-29T13:18:23.455Z,98086.00
2023-03-29T13:21:07.374Z,98079.53
2023-03-29T13:24:01.870Z,98085.22
2023-03-29T13:26:43.671Z,98079.69
2023-03-29T13:29:17.498Z,98078.63
2023-03-29T13:32:14.592Z,98081.16
2023-03-29T13:34:46.383Z,98087.03
2023-03-29T13:37:34.289Z,98066.63
2023-03-29T13:40:00.741Z,98067.09
2023-03-29T13:42:33.225Z,98065.47
2023-03-29T13:45:29.828Z,98069.25
2023-03-29T13:48:23.788Z,98066.81
2023-03-29T13:51:13.542Z,98055.94
2023-03-29T13:54:00.598Z,98054.53
2023-03-29T13:56:32.949Z,98051.53
2023-03-29T13:59:13.638Z,98038.09
2023-03-29T14:01:49.211Z,98032.66
2023-03-29T14:04:37.793Z,98025.19
2023-03-29T14:07:04.306Z,98019.75
2023-03-29T14:09:32.218Z,98021.75
2023-03-29T14:11:59.536Z,98021.66
2023-03-29T14:14:26.331Z,98016.13
2023-03-29T14:16:52.995Z,98001.50
2023-03-29T14:19:24.830Z,97995.84
2023-03-29T14:21:52.643Z,98001.56
2023-03-29T14:24:25.873Z,98003.53
2023-03-29T14:26:52.486Z,98012.47
2023-03-29T14:29:18.940Z,98003.81
2023-03-29T14:31:45.575Z,97992.91
2023-03-29T14:34:14.158Z,97987.78
2023-03-29T14:36:41.006Z,97991.28
2023-03-29T14:39:18.037Z,97987.16
2023-03-29T14:41:50.039Z,97989.94
2023-03-29T14:44:16.606Z,97978.31
2023-03-29T14:46:43.330Z,97981.81
2023-03-29T14:49:10.415Z,97984.72
2023-03-29T14:51:40.397Z,97977.06
2023-03-29T14:54:06.872Z,97977.69
2023-03-29T14:56:33.536Z,97980.47
2023-03-29T14:59:01.459Z,97972.50
2023-03-29T15:01:28.049Z,97969.72
2023-03-29T15:03:55.215Z,97969.38
2023-03-29T15:06:22.703Z,97966.50
2023-03-29T15:09:02.004Z,97951.00
2023-03-29T15:11:31.591Z,97954.59
2023-03-29T15:14:08.658Z,97946.78
2023-03-29T15:16:38.719Z,97943.78
2023-03-29T15:19:05.252Z,97944.44
2023-03-29T15:21:33.218Z,97941.00
2023-03-29T15:24:00.618Z,97936.66
2023-03-29T15:26:32.025Z,97938.91
2023-03-29T15:29:08.100Z,97935.31
2023-03-29T15:31:37.069Z,97923.78
2023-03-29T15:34:13.515Z,97925.38
2023-03-29T15:36:45.022Z,97932.28
2023-03-29T15:39:12.822Z,97930.69
2023-03-29T15:41:39.845Z,97921.47
2023-03-29T15:44:07.144Z,97919.44
2023-03-29T15:46:33.746Z,97920.06
2023-03-29T15:49:00.397Z,97914.88
2023-03-29T15:51:26.878Z,97909.84
2023-03-29T15:53:53.339Z,97905.44
2023-03-29T15:56:20.360Z,97911.38
2023-03-29T15:58:47.076Z,97911.41
2023-03-29T16:01:37.356Z,97913.44
2023-03-29T16:04:09.937Z,97908.47
2023-03-29T16:06:36.691Z,97919.00
2023-03-29T16:09:04.297Z,97909.31
2023-03-29T16:11:30.863Z,97908.88
2023-03-29T16:13:57.491Z,97896.63
2023-03-29T16:16:24.386Z,97901.81
2023-03-29T16:18:51.110Z,97898.78
2023-03-29T16:21:18.365Z,97901.81
2023-03-29T16:23:47.668Z,97892.31
2023-03-29T16:26:14.983Z,97890.72
2023-03-29T16:28:41.464Z,97895.19
2023-03-29T16:31:10.390Z,97893.94
2023-03-29T16:33:37.138Z,97892.31
2023-03-29T16:36:04.296Z,97899.38
2023-03-29T16:38:31.453Z,97894.38
2023-03-29T16:40:58.561Z,97891.69
2023-03-29T16:43:25.205Z,97891.97
2023-03-29T16:45:52.050Z,97885.19
2023-03-29T16:48:18.867Z,97886.72
2023-03-29T16:50:49.436Z,97887.25
2023-03-29T16:53:16.561Z,97893.66
2023-03-29T16:55:43.073Z,97905.31
2023-03-29T16:58:09.864Z,97897.38
2023-03-29T17:00:36.551Z,97896.44
2023-03-29T17:03:03.122Z,97888.78
2023-03-29T17:05:29.641Z,97895.41
2023-03-29T17:07:56.263Z,97892.72
2023-03-29T17:10:23.024Z,97902.31
2023-03-29T17:12:50.513Z,97900.59
2023-03-29T17:15:17.711Z,97888.16
2023-03-29T17:17:44.534Z,97887.09
2023-03-29T17:20:14.317Z,97886.81
2023-03-29T17:22:41.135Z,97884.22
2023-03-29T17:25:08.126Z,97883.75
2023-03-29T17:27:35.380Z,97881.91
2023-03-29T17:30:02.438Z,97881.50
2023-03-29T17:32:28.962Z,97884.22
2023-03-29T17:34:55.586Z,97870.25
2023-03-29T17:37:22.680Z,97867.88
2023-03-29T17:39:49.150Z,97874.34
2023-03-29T17:42:17.195Z,97883.97
2023-03-29T17:44:44.054Z,97881.03
2023-03-29T17:47:10.881Z,97877.16
2023-03-29T17:49:37.846Z,97873.28
2023-03-29T17:52:04.341Z,97869.19
2023-03-29T17:54:34.117Z,97877.50
2023-03-29T17:57:00.773Z,97873.56
2023-03-29T17:59:27.271Z,97864.56
2023-03-29T18:01:53.757Z,97862.56
2023-03-29T18:04:20.616Z,97861.19
2023-03-29T18:06:49.358Z,97869.66
2023-03-29T18:09:16.949Z,97871.06
2023-03-29T18:11:45.648Z,97868.09
2023-03-29T18:14:12.171Z,97866.94
2023-03-29T18:16:41.918Z,97877.22
2023-03-29T18:19:10.865Z,97875.28
2023-03-29T18:21:37.343Z,97873.88
2023-03-29T18:24:03.923Z,97878.66
2023-03-29T18:26:30.435Z,97859.84
2023-03-29T18:28:57.585Z,97853.19
2023-03-29T18:31:24.349Z,97838.28
2023-03-29T18:33:50.865Z,97823.91
2023-03-29T18:36:17.411Z,97817.75
2023-03-29T18:38:44.260Z,97819.97
2023-03-29T18:41:12.363Z,97796.78
2023-03-29T18:43:39.753Z,97794.03
2023-03-29T18:46:08.146Z,97790.81
2023-03-29T18:48:39.646Z,97787.13
2023-03-29T18:51:10.700Z,97775.41
2023-03-29T18:53:37.685Z,97784.63
2023-03-29T18:56:04.934Z,97797.50
2023-03-29T18:58:32.530Z,97797.41
2023-03-29T19:01:04.058Z,97782.88
2023-03-29T19:03:31.694Z,97778.88
2023-03-29T19:05:58.566Z,97792.00
2023-03-29T19:08:26.256Z,97780.56
2023-03-29T19:10:53.652Z,97784.75
2023-03-29T19:13:20.502Z,97785.03
2023-03-29T19:15:47.606Z,97790.31
2023-03-29T19:18:14.436Z,97781.63
2023-03-29T19:20:41.280Z,97774.38
2023-03-29T19:23:08.263Z,97775.09
2023-03-29T19:25:36.264Z,97781.22
2023-03-29T19:28:04.838Z,97783.19
2023-03-29T19:30:31.387Z,97777.38
2023-03-29T19:32:57.944Z,97778.63
2023-03-29T19:35:24.459Z,97769.25
2023-03-29T19:37:51.424Z,97761.13
2023-03-29T19:40:18.018Z,97758.97
2023-03-29T19:42:44.570Z,97745.91
2023-03-29T19:45:11.346Z,97743.19
2023-03-29T19:47:40.026Z,97746.75
2023-03-29T19:50:07.160Z,97738.09
2023-03-29T19:52:33.910Z,97732.91
2023-03-29T19:55:00.996Z,97735.41
2023-03-29T19:57:28.192Z,97727.00
2023-03-29T19:59:54.727Z,97722.25
2023-03-29T20:02:21.190Z,97715.44
2023-03-29T20:04:47.685Z,97718.56
2023-03-29T20:07:14.505Z,97705.78
2023-03-29T20:09:44.555Z,97716.59
2023-03-29T20:12:11.976Z,97714.84
2023-03-29T20:14:40.461Z,97715.34
2023-03-29T20:17:07.256Z,97703.97
2023-03-29T20:19:36.479Z,97695.88
2023-03-29T20:22:03.794Z,97687.03
2023-03-29T20:24:31.368Z,97687.91
2023-03-29T20:26:57.846Z,97687.63
2023-03-29T20:29:25.136Z,97674.84
2023-03-29T20:31:51.954Z,97678.13
2023-03-29T20:34:18.496Z,97679.31
2023-03-29T20:36:46.911Z,97671.72
2023-03-29T20:39:16.981Z,97673.97
2023-03-29T20:41:47.510Z,97670.13
2023-03-29T20:44:16.758Z,97675.59
2023-03-29T20:46:54.211Z,97665.66
2023-03-29T20:49:26.280Z,97672.00
2023-03-29T20:51:58.557Z,97666.47
2023-03-29T20:54:28.656Z,97658.59
2023-03-29T20:56:55.971Z,97663.25
2023-03-29T20:59:22.887Z,97660.78
2023-03-29T21:01:50.556Z,97656.25
2023-03-29T21:04:20.580Z,97654.03
2023-03-29T21:06:49.694Z,97650.88
2023-03-29T21:09:19.294Z,97657.19
2023-03-29T21:11:45.808Z,97643.72
2023-03-29T21:14:12.345Z,97646.81
2023-03-29T21:16:41.748Z,97649.28
2023-03-29T21:19:09.605Z,97650.03
2023-03-29T21:21:36.130Z,97642.00
2023-03-29T21:24:03.935Z,97646.31
2023-03-29T21:26:30.893Z,97636.81
2023-03-29T21:28:57.713Z,97637.34
2023-03-29T21:31:24.264Z,97634.84
2023-03-29T21:33:51.310Z,97627.41
2023-03-29T21:36:18.278Z,97629.69
2023-03-29T21:38:44.958Z,97618.22
2023-03-29T21:41:12.154Z,97612.16
2023-03-29T21:43:39.037Z,97618.22
2023-03-29T21:46:06.338Z,97604.78
2023-03-29T21:48:34.199Z,97605.00
2023-03-29T21:51:01.668Z,97600.69
2023-03-29T21:53:28.258Z,97606.13
2023-03-29T21:55:56.951Z,97597.06
2023-03-29T21:58:23.946Z,97592.09
2023-03-29T22:00:50.904Z,97587.22
2023-03-29T22:03:17.648Z,97594.91
2023-03-29T22:05:55.167Z,97586.44
2023-03-29T22:08:26.131Z,97591.09
2023-03-29T22:10:55.458Z,97579.44
2023-03-29T22:13:26.901Z,97581.91
2023-03-29T22:16:06.063Z,97576.28
2023-03-29T22:18:43.442Z,97575.66
2023-03-29T22:21:15.164Z,97563.56
2023-03-29T22:23:42.448Z,97564.88
2023-03-29T22:26:09.536Z,97556.19
2023-03-29T22:28:39.067Z,97554.34
2023-03-29T22:31:07.525Z,97555.25
2023-03-29T22:33:34.339Z,97561.94
2023-03-29T22:36:02.120Z,97558.38
2023-03-29T22:38:28.990Z,97552.56
2023-03-29T22:40:55.836Z,97550.28
2023-03-29T22:43:22.305Z,97542.78
2023-03-29T22:45:49.150Z,97536.91
2023-03-29T22:48:15.868Z,97546.72
2023-03-29T22:50:45.957Z,97545.31
2023-03-29T22:53:12.587Z,97535.19
2023-03-29T22:55:39.076Z,97533.13
2023-03-29T22:58:05.558Z,97525.91
2023-03-29T23:00:32.100Z,97524.75
2023-03-29T23:02:59.539Z,97524.09
2023-03-29T23:05:26.102Z,97517.63
2023-03-29T23:07:52.588Z,97522.88
2023-03-29T23:10:19.458Z,97518.50
2023-03-29T23:12:45.928Z,97518.00
2023-03-29T23:15:13.883Z,97510.25
2023-03-29T23:17:40.574Z,97510.81
2023-03-29T23:20:09.069Z,97501.75
2023-03-29T23:22:36.305Z,97507.66
2023-03-29T23:25:03.145Z,97502.44
2023-03-29T23:27:29.610Z,97497.69
2023-03-29T23:29:56.283Z,97502.16
2023-03-29T23:32:22.822Z,97498.91
2023-03-29T23:34:49.300Z,97500.81
2023-03-29T23:37:16.104Z,97495.44
2023-03-29T23:39:42.603Z,97487.34
2023-03-29T23:42:09.486Z,97493.78
2023-03-29T23:44:36.288Z,97495.53
2023-03-29T23:47:02.995Z,97496.59
2023-03-29T23:49:31.784Z,97488.16
2023-03-29T23:52:00.392Z,97488.72
2023-03-29T23:54:27.448Z,97488.88
2023-03-29T23:56:53.995Z,97477.78
2023-03-29T23:59:22.664Z,97471.44
